createdAt,value
2022-10-17T00:01:14.468Z,10.30
2022-10-17T00:03:42.681Z,11.50
2022-10-17T00:06:14.142Z,11.20
2022-10-17T00:08:43.605Z,10.30
2022-10-17T00:11:22.256Z,8.60
2022-10-17T00:13:53.912Z,11.20
2022-10-17T00:16:36.619Z,14.70
2022-10-17T00:19:06.747Z,12.60
2022-10-17T00:21:34.818Z,11.00
2022-10-17T00:24:02.786Z,13.20
2022-10-17T00:26:30.856Z,10.20
2022-10-17T00:28:58.997Z,9.90
2022-10-17T00:31:27.463Z,10.80
2022-10-17T00:33:58.655Z,10.70
2022-10-17T00:36:27.033Z,12.20
2022-10-17T00:38:59.413Z,10.00
2022-10-17T00:41:32.210Z,10.40
2022-10-17T00:44:31.493Z,9.60
2022-10-17T00:47:06.321Z,11.60
2022-10-17T00:49:39.000Z,9.10
2022-10-17T00:52:15.778Z,10.60
2022-10-17T00:54:52.142Z,11.90
2022-10-17T00:57:20.732Z,10.40
2022-10-17T00:59:53.096Z,14.50
2022-10-17T01:02:22.708Z,11.30
2022-10-17T01:04:53.438Z,11.70
2022-10-17T01:07:21.886Z,9.40
2022-10-17T01:09:51.629Z,10.20
2022-10-17T01:12:26.565Z,10.20
2022-10-17T01:15:14.191Z,8.80
2022-10-17T01:17:48.011Z,10.00
2022-10-17T01:20:34.297Z,8.20
2022-10-17T01:23:30.323Z,7.60
2022-10-17T01:26:13.754Z,10.80
2022-10-17T01:29:00.360Z,15.10
2022-10-17T01:31:40.616Z,11.60
2022-10-17T01:34:19.339Z,11.10
2022-10-17T01:37:04.307Z,10.10
2022-10-17T01:39:52.139Z,10.20
2022-10-17T01:42:31.012Z,9.80
2022-10-17T01:45:20.027Z,14.50
2022-10-17T01:47:52.641Z,10.90
2022-10-17T01:50:28.561Z,9.60
2022-10-17T01:53:13.629Z,9.60
2022-10-17T01:55:45.966Z,10.50
2022-10-17T01:58:20.731Z,9.50
2022-10-17T02:01:30.967Z,11.90
2022-10-17T02:04:03.919Z,15.10
2022-10-17T02:06:35.631Z,12.70
2022-10-17T02:09:20.605Z,11.20
2022-10-17T02:12:16.216Z,13.20
2022-10-17T02:15:00.363Z,10.20
2022-10-17T02:18:06.326Z,11.90
2022-10-17T02:20:45.147Z,10.20
2022-10-17T02:23:39.741Z,9.60
2022-10-17T02:26:18.238Z,9.70
2022-10-17T02:29:06.504Z,10.20
2022-10-17T02:31:56.383Z,10.10
2022-10-17T02:34:27.119Z,11.30
2022-10-17T02:37:02.356Z,11.30
2022-10-17T02:39:33.205Z,9.10
2022-10-17T02:42:06.181Z,9.00
2022-10-17T02:44:35.888Z,11.20
2022-10-17T02:47:17.785Z,11.20
2022-10-17T02:52:28.124Z,12.70
2022-10-17T02:55:01.455Z,13.10
2022-10-17T02:57:40.482Z,11.90
2022-10-17T03:00:12.174Z,11.40
2022-10-17T03:02:40.723Z,13.50
2022-10-17T03:05:11.228Z,9.00
2022-10-17T03:07:39.322Z,10.50
2022-10-17T03:10:08.726Z,12.40
2022-10-17T03:12:37.824Z,11.40
2022-10-17T03:15:06.789Z,9.60
2022-10-17T03:17:36.144Z,11.50
2022-10-17T03:20:05.307Z,12.60
2022-10-17T03:22:33.997Z,8.90
2022-10-17T03:25:03.913Z,14.20
2022-10-17T03:27:32.309Z,9.30
2022-10-17T03:30:00.667Z,11.60
2022-10-17T03:32:29.969Z,8.60
2022-10-17T03:34:57.937Z,12.50
2022-10-17T03:37:26.195Z,9.00
2022-10-17T03:39:54.490Z,9.60
2022-10-17T03:42:22.664Z,11.90
2022-10-17T03:44:50.736Z,12.40
2022-10-17T03:47:18.807Z,8.40
2022-10-17T03:49:47.287Z,9.40
2022-10-17T03:52:16.305Z,9.80
2022-10-17T03:54:44.556Z,11.90
2022-10-17T03:57:12.525Z,10.10
2022-10-17T03:59:40.903Z,8.80
2022-10-17T04:02:13.685Z,8.20
2022-10-17T04:04:41.757Z,13.30
2022-10-17T04:07:09.731Z,11.40
2022-10-17T04:09:39.845Z,11.60
2022-10-17T04:12:12.528Z,9.70
2022-10-17T04:14:41.210Z,10.30
2022-10-17T04:17:10.203Z,10.10
2022-10-17T04:19:38.890Z,12.50
2022-10-17T04:22:08.701Z,10.80
2022-10-17T04:24:38.719Z,9.70
2022-10-17T04:27:22.251Z,8.40
2022-10-17T04:29:50.324Z,12.40
2022-10-17T04:32:22.695Z,11.70
2022-10-17T04:35:07.887Z,10.90
2022-10-17T04:37:35.941Z,11.80
2022-10-17T04:40:09.945Z,10.00
2022-10-17T04:42:38.431Z,14.20
2022-10-17T04:45:08.063Z,13.20
2022-10-17T04:47:36.621Z,9.70
2022-10-17T04:50:05.895Z,15.60
2022-10-17T04:52:37.619Z,14.50
2022-10-17T04:55:06.693Z,12.50
2022-10-17T04:57:36.167Z,12.30
2022-10-17T05:00:14.061Z,11.50
2022-10-17T05:03:11.335Z,50.10
2022-10-17T05:05:40.522Z,151.10
2022-10-17T05:08:10.961Z,43.30
2022-10-17T05:10:41.489Z,21.60
2022-10-17T05:13:10.381Z,22.70
2022-10-17T05:15:38.725Z,17.10
2022-10-17T05:18:07.545Z,23.70
2022-10-17T05:20:35.821Z,16.70
2022-10-17T05:23:03.896Z,17.80
2022-10-17T05:25:35.855Z,11.30
2022-10-17T05:28:03.926Z,12.40
2022-10-17T05:30:35.211Z,19.10
2022-10-17T05:33:06.315Z,16.10
2022-10-17T05:35:36.333Z,20.80
2022-10-17T05:38:04.610Z,22.10
2022-10-17T05:40:34.830Z,20.20
2022-10-17T05:43:03.823Z,13.10
2022-10-17T05:45:32.099Z,13.80
2022-10-17T05:48:00.581Z,12.80
2022-10-17T05:50:29.369Z,11.00
2022-10-17T05:53:03.176Z,11.50
2022-10-17T05:55:31.555Z,13.10
2022-10-17T05:58:03.095Z,13.50
2022-10-17T06:00:35.344Z,12.00
2022-10-17T06:03:03.550Z,10.80
2022-10-17T06:05:31.622Z,11.00
2022-10-17T06:08:01.983Z,11.10
2022-10-17T06:10:33.192Z,12.20
2022-10-17T06:13:01.482Z,12.40
2022-10-17T06:15:30.461Z,11.00
2022-10-17T06:18:06.212Z,13.00
2022-10-17T06:20:34.487Z,14.20
2022-10-17T06:23:04.051Z,12.70
2022-10-17T06:25:49.372Z,13.20
2022-10-17T06:28:17.644Z,13.70
2022-10-17T06:30:45.822Z,13.50
2022-10-17T06:33:13.788Z,12.00
2022-10-17T06:35:41.860Z,13.70
2022-10-17T06:38:10.217Z,13.10
2022-10-17T06:40:38.721Z,12.90
2022-10-17T06:43:07.610Z,10.40
2022-10-17T06:45:59.031Z,12.00
2022-10-17T06:48:39.183Z,10.00
2022-10-17T06:51:30.803Z,11.60
2022-10-17T06:54:00.311Z,13.20
2022-10-17T06:56:48.863Z,10.90
2022-10-17T06:59:31.885Z,9.50
2022-10-17T07:02:06.716Z,10.50
2022-10-17T07:04:34.991Z,11.00
2022-10-17T07:07:03.578Z,12.60
2022-10-17T07:09:33.908Z,11.70
2022-10-17T07:12:02.891Z,22.40
2022-10-17T07:14:32.236Z,11.70
2022-10-17T07:17:01.959Z,10.60
2022-10-17T07:22:01.087Z,10.00
2022-10-17T07:24:29.290Z,14.00
2022-10-17T07:27:04.121Z,10.90
2022-10-17T07:29:32.191Z,12.80
2022-10-17T07:32:12.451Z,12.60
2022-10-17T07:34:41.443Z,14.80
2022-10-17T07:37:10.948Z,11.30
2022-10-17T07:39:41.885Z,14.50
2022-10-17T07:42:10.878Z,13.20
2022-10-17T07:44:39.050Z,12.90
2022-10-17T07:47:07.430Z,9.80
2022-10-17T07:49:42.686Z,9.80
2022-10-17T07:52:12.378Z,11.10
2022-10-17T07:54:41.054Z,12.70
2022-10-17T07:57:09.430Z,18.00
2022-10-17T07:59:38.600Z,11.90
2022-10-17T08:02:08.350Z,13.80
2022-10-17T08:04:36.732Z,10.70
2022-10-17T08:07:18.628Z,11.50
2022-10-17T08:09:48.948Z,11.10
2022-10-17T08:12:17.019Z,9.20
2022-10-17T08:14:45.091Z,10.50
2022-10-17T08:17:13.162Z,12.10
2022-10-17T08:19:41.440Z,12.60
2022-10-17T08:22:09.714Z,12.40
2022-10-17T08:24:38.094Z,13.70
2022-10-17T08:27:11.723Z,16.10
2022-10-17T08:29:41.151Z,9.30
2022-10-17T08:32:10.338Z,10.00
2022-10-17T08:34:38.571Z,13.60
2022-10-17T08:37:06.706Z,10.70
2022-10-17T08:39:34.918Z,13.70
2022-10-17T08:42:05.960Z,12.90
2022-10-17T08:44:57.280Z,11.30
2022-10-17T08:47:35.997Z,12.70
2022-10-17T08:50:07.548Z,12.10
2022-10-17T08:52:39.007Z,15.10
2022-10-17T08:55:28.065Z,9.50
2022-10-17T08:57:56.237Z,8.90
2022-10-17T09:00:26.357Z,10.10
2022-10-17T09:03:10.175Z,11.30
2022-10-17T09:05:50.859Z,11.80
2022-10-17T09:08:24.771Z,12.50
2022-10-17T09:11:31.347Z,9.00
2022-10-17T09:13:59.316Z,8.90
2022-10-17T09:16:55.342Z,11.40
2022-10-17T09:19:28.817Z,11.50
2022-10-17T09:22:05.927Z,10.10
2022-10-17T09:24:57.651Z,9.20
2022-10-17T09:27:36.945Z,8.50
2022-10-17T09:30:46.177Z,8.60
2022-10-17T09:33:35.058Z,11.30
2022-10-17T09:36:23.229Z,8.00
2022-10-17T09:38:57.913Z,8.80
2022-10-17T09:41:46.408Z,11.70
2022-10-17T09:44:17.761Z,11.20
2022-10-17T09:47:10.497Z,12.90
2022-10-17T09:49:41.845Z,8.60
2022-10-17T09:52:35.633Z,10.10
2022-10-17T09:55:18.456Z,10.40
2022-10-17T09:57:52.241Z,12.70
2022-10-17T10:00:26.610Z,11.90
2022-10-17T10:03:12.961Z,9.90
2022-10-17T10:05:41.852Z,9.10
2022-10-17T10:08:18.012Z,11.50
2022-10-17T10:10:46.493Z,11.40
2022-10-17T10:13:14.468Z,10.40
2022-10-17T10:15:47.759Z,13.80
2022-10-17T10:18:25.274Z,14.20
2022-10-17T10:21:18.591Z,10.30
2022-10-17T10:24:03.889Z,10.10
2022-10-17T10:26:55.231Z,12.40
2022-10-17T10:29:37.409Z,10.40
2022-10-17T10:32:22.578Z,11.10
2022-10-17T10:35:22.087Z,10.40
2022-10-17T10:37:53.128Z,12.10
2022-10-17T10:40:46.798Z,10.00
2022-10-17T10:43:38.090Z,10.60
2022-10-17T10:46:17.757Z,11.40
2022-10-17T10:48:59.705Z,11.10
2022-10-17T10:51:40.831Z,11.60
2022-10-17T10:54:28.318Z,10.90
2022-10-17T10:57:00.526Z,11.60
2022-10-17T11:00:25.083Z,13.30
2022-10-17T11:03:19.205Z,11.50
2022-10-17T11:05:56.492Z,12.10
2022-10-17T11:08:35.622Z,12.40
2022-10-17T11:11:09.531Z,13.10
2022-10-17T11:13:43.847Z,15.80
2022-10-17T11:16:40.079Z,25.30
2022-10-17T11:19:38.873Z,19.10
2022-10-17T11:22:31.302Z,17.20
2022-10-17T11:25:05.222Z,11.30
2022-10-17T11:27:35.445Z,12.40
2022-10-17T11:30:04.533Z,13.00
2022-10-17T11:32:40.804Z,14.90
2022-10-17T11:35:15.137Z,9.70
2022-10-17T11:37:50.258Z,10.40
2022-10-17T11:40:26.015Z,9.60
2022-10-17T11:43:02.272Z,13.30
2022-10-17T11:45:40.869Z,12.50
2022-10-17T11:48:22.582Z,8.40
2022-10-17T11:56:26.936Z,8.40
2022-10-17T11:59:25.626Z,11.90
2022-10-17T12:02:01.889Z,8.10
2022-10-17T12:04:59.451Z,11.30
2022-10-17T12:07:27.638Z,8.90
2022-10-17T12:09:58.870Z,9.60
2022-10-17T12:12:32.716Z,10.90
2022-10-17T12:15:23.496Z,13.10
2022-10-17T12:18:17.477Z,10.00
2022-10-17T12:20:57.645Z,9.20
2022-10-17T12:23:30.397Z,9.40
2022-10-17T12:26:05.418Z,9.30
2022-10-17T12:28:45.199Z,10.80
2022-10-17T12:31:15.907Z,8.50
2022-10-17T12:33:49.904Z,11.50
2022-10-17T12:36:17.889Z,9.70
2022-10-17T12:38:52.311Z,12.90
2022-10-17T12:41:38.862Z,10.90
2022-10-17T12:44:13.237Z,8.70
2022-10-17T12:46:49.598Z,10.40
2022-10-17T12:49:23.983Z,10.60
2022-10-17T12:52:11.547Z,9.70
2022-10-17T12:54:47.284Z,12.20
2022-10-17T12:57:31.166Z,10.10
2022-10-17T13:00:05.354Z,10.00
2022-10-17T13:02:33.950Z,10.50
2022-10-17T13:05:14.913Z,9.60
2022-10-17T13:07:45.272Z,17.40
2022-10-17T13:10:22.906Z,11.20
2022-10-17T13:12:54.181Z,13.70
2022-10-17T13:15:22.689Z,12.60
2022-10-17T13:18:01.499Z,10.90
2022-10-17T13:20:31.990Z,22.80
2022-10-17T13:23:00.291Z,16.80
2022-10-17T13:25:28.667Z,10.40
2022-10-17T13:28:12.582Z,10.80
2022-10-17T13:30:48.571Z,15.80
2022-10-17T13:33:35.582Z,13.10
2022-10-17T13:36:07.852Z,12.80
2022-10-17T13:38:40.344Z,9.70
2022-10-17T13:41:34.776Z,11.00
2022-10-17T13:44:12.207Z,10.10
2022-10-17T13:46:41.028Z,10.30
2022-10-17T13:49:25.750Z,9.70
2022-10-17T13:51:58.541Z,14.80
2022-10-17T13:54:34.804Z,8.40
2022-10-17T13:57:04.924Z,8.80
2022-10-17T13:59:39.871Z,10.10
2022-10-17T14:02:15.813Z,8.80
2022-10-17T14:05:15.780Z,14.30
2022-10-17T14:07:58.130Z,12.20
2022-10-17T14:10:27.974Z,7.70
2022-10-17T14:12:56.633Z,11.80
2022-10-17T14:15:30.340Z,13.90
2022-10-17T14:18:07.762Z,11.50
2022-10-17T14:23:42.269Z,11.70
2022-10-17T14:26:13.184Z,13.60
2022-10-17T14:28:43.762Z,18.80
2022-10-17T14:31:36.487Z,11.90
2022-10-17T14:34:05.825Z,12.80
2022-10-17T14:36:44.078Z,13.00
2022-10-17T14:39:20.672Z,11.80
2022-10-17T16:16:29.315Z,23.70
2022-10-17T16:18:57.841Z,53.10
2022-10-17T16:24:04.876Z,28.20
2022-10-17T16:26:33.173Z,23.10
2022-10-17T16:29:03.654Z,102.00
2022-10-17T16:31:35.562Z,35.80
2022-10-17T16:34:04.860Z,28.00
2022-10-17T16:36:33.854Z,30.30
2022-10-17T16:39:01.926Z,22.20
2022-10-17T16:41:33.682Z,23.30
2022-10-17T16:46:33.819Z,291.30
2022-10-17T16:49:04.554Z,237.90
2022-10-17T16:51:35.917Z,203.60
2022-10-17T16:54:04.795Z,37.70
2022-10-17T16:56:33.170Z,23.50
2022-10-17T16:59:01.989Z,22.30
2022-10-17T17:01:30.953Z,23.10
2022-10-17T17:03:59.809Z,24.60
2022-10-17T17:06:29.504Z,28.20
2022-10-17T17:08:58.052Z,25.40
2022-10-17T17:11:28.357Z,25.90
2022-10-17T17:13:57.815Z,28.60
2022-10-17T17:16:27.349Z,25.50
2022-10-17T17:18:58.101Z,43.90
2022-10-17T17:21:27.958Z,87.70
2022-10-17T17:23:58.752Z,83.10
2022-10-17T17:26:30.714Z,88.40
2022-10-17T17:31:30.338Z,270.60
2022-10-17T17:33:58.526Z,277.40
2022-10-17T17:36:29.858Z,117.60
2022-10-17T17:39:00.142Z,80.10
2022-10-17T17:41:28.667Z,329.60
2022-10-17T17:43:57.248Z,203.70
2022-10-17T17:46:26.075Z,71.40
2022-10-17T17:48:55.387Z,89.00
2022-10-17T17:51:29.042Z,206.90
2022-10-17T17:53:57.852Z,298.20
2022-10-17T17:56:28.665Z,163.90
2022-10-17T17:58:59.546Z,265.00
2022-10-17T18:01:30.401Z,174.70
2022-10-17T18:03:59.636Z,352.50
2022-10-17T18:06:28.432Z,234.40
2022-10-17T18:08:58.750Z,334.90
2022-10-17T18:11:27.598Z,291.30
2022-10-17T18:14:01.068Z,186.00
2022-10-17T18:16:31.257Z,116.30
2022-10-17T18:19:04.126Z,311.20
2022-10-17T18:21:36.229Z,284.50
2022-10-17T18:24:05.055Z,265.60
2022-10-17T18:26:33.693Z,221.30
2022-10-17T18:29:04.533Z,126.10
2022-10-17T18:31:36.027Z,85.80
2022-10-17T18:34:05.891Z,84.50
2022-10-17T18:36:35.696Z,108.10
2022-10-17T18:39:05.204Z,101.90
2022-10-17T18:41:33.888Z,114.80
2022-10-17T18:44:05.223Z,162.30
2022-10-17T18:46:40.344Z,152.00
2022-10-17T18:49:16.123Z,204.80
2022-10-17T18:51:51.791Z,189.10
2022-10-17T18:54:22.265Z,260.70
2022-10-17T18:56:52.940Z,139.30
2022-10-17T19:02:06.668Z,96.20
2022-10-17T19:04:34.862Z,134.10
2022-10-17T19:07:02.932Z,101.10
2022-10-17T19:09:31.005Z,95.60
2022-10-17T19:12:00.382Z,102.40
2022-10-17T19:14:28.990Z,48.80
2022-10-17T19:16:57.574Z,35.90
2022-10-17T19:19:27.282Z,35.80
2022-10-17T19:21:55.559Z,32.80
2022-10-17T19:24:27.213Z,31.90
2022-10-17T19:29:27.146Z,39.10
2022-10-17T19:34:24.312Z,27.00
2022-10-17T19:36:52.240Z,21.30
2022-10-17T19:39:23.121Z,25.40
2022-10-17T19:41:51.396Z,18.50
2022-10-17T19:44:19.467Z,19.70
2022-10-17T19:46:49.408Z,20.10
2022-10-17T19:49:18.425Z,17.60
2022-10-17T19:51:46.590Z,20.20
2022-10-17T19:54:18.332Z,18.10
2022-10-17T19:59:15.750Z,16.70
2022-10-17T20:01:44.654Z,18.60
2022-10-17T20:04:13.711Z,17.20
2022-10-17T20:06:41.835Z,14.70
2022-10-17T20:09:15.677Z,20.10
2022-10-17T20:11:45.765Z,19.30
2022-10-17T20:14:13.832Z,18.20
2022-10-17T20:16:42.620Z,14.00
2022-10-17T20:19:13.160Z,15.90
2022-10-17T20:21:43.546Z,16.60
2022-10-17T20:24:14.620Z,16.90
2022-10-17T20:26:43.373Z,14.60
2022-10-17T20:29:18.235Z,15.90
2022-10-17T20:31:47.236Z,14.90
2022-10-17T20:34:17.869Z,15.30
2022-10-17T20:36:46.492Z,15.10
2022-10-17T20:39:16.567Z,18.50
2022-10-17T20:41:45.714Z,14.40
2022-10-17T20:44:14.855Z,17.90
2022-10-17T20:47:00.724Z,17.80
2022-10-17T20:49:32.299Z,16.60
2022-10-17T20:52:01.185Z,13.80
2022-10-17T20:54:29.234Z,13.10
2022-10-17T20:56:59.857Z,14.70
2022-10-17T20:59:30.830Z,14.70
2022-10-17T21:01:59.129Z,13.60
2022-10-17T21:07:16.855Z,15.10
2022-10-17T21:09:46.467Z,12.80
2022-10-17T21:12:21.705Z,16.00
2022-10-17T21:14:59.939Z,14.00
2022-10-17T21:17:28.188Z,17.40
2022-10-17T21:19:56.570Z,16.30
2022-10-17T21:22:25.051Z,15.10
2022-10-17T21:24:52.992Z,14.90
2022-10-17T21:27:20.985Z,15.20
2022-10-17T21:29:48.954Z,15.50
2022-10-17T21:32:31.861Z,13.30
2022-10-17T21:35:05.680Z,15.20
2022-10-17T21:37:33.648Z,14.70
2022-10-17T21:40:01.618Z,16.30
2022-10-17T21:42:29.946Z,13.90
2022-10-17T21:44:59.193Z,14.60
2022-10-17T21:47:27.743Z,14.80
2022-10-17T21:49:56.338Z,14.50
2022-10-17T21:52:24.533Z,17.80
2022-10-17T21:54:52.605Z,19.40
2022-10-17T21:57:20.575Z,13.50
2022-10-17T21:59:48.542Z,11.90
2022-10-17T22:02:16.614Z,13.40
2022-10-17T22:04:44.583Z,18.90
2022-10-17T22:07:12.552Z,15.60
2022-10-17T22:09:40.625Z,12.30
2022-10-17T22:12:08.598Z,15.00
2022-10-17T22:14:36.664Z,14.80
2022-10-17T22:17:04.633Z,14.00
2022-10-17T22:19:32.909Z,13.80
2022-10-17T22:22:00.980Z,15.40
2022-10-17T22:24:29.159Z,11.40
2022-10-17T22:26:57.225Z,11.20
2022-10-17T22:29:25.300Z,13.20
2022-10-17T22:31:53.368Z,14.30
2022-10-17T22:34:21.440Z,11.10
2022-10-17T22:36:49.833Z,16.40
2022-10-17T22:39:18.299Z,11.80
2022-10-17T22:41:46.373Z,11.40
2022-10-17T22:44:14.444Z,14.40
2022-10-17T22:46:42.394Z,13.60
2022-10-17T22:49:10.382Z,15.50
2022-10-17T22:51:38.378Z,15.40
2022-10-17T22:54:06.420Z,15.90
2022-10-17T22:56:34.405Z,16.40
2022-10-17T22:59:02.668Z,18.50
2022-10-17T23:01:30.653Z,22.10
2022-10-17T23:03:59.012Z,17.80
2022-10-17T23:06:26.982Z,16.00
2022-10-17T23:08:55.566Z,18.20
2022-10-17T23:11:23.636Z,14.80
2022-10-17T23:13:51.708Z,15.80
2022-10-17T23:16:19.778Z,18.50
2022-10-17T23:18:48.580Z,16.30
2022-10-17T23:21:16.640Z,15.20
2022-10-17T23:23:44.711Z,17.20
2022-10-17T23:26:14.326Z,12.50
2022-10-17T23:28:43.383Z,13.60
2022-10-17T23:31:17.083Z,15.60
2022-10-17T23:33:47.031Z,17.10
2022-10-17T23:36:18.070Z,14.40
2022-10-17T23:38:47.062Z,13.20
2022-10-17T23:41:15.443Z,13.80
2022-10-17T23:43:44.348Z,14.20
2022-10-17T23:46:12.815Z,14.30
2022-10-17T23:48:41.529Z,12.70
2022-10-17T23:51:10.806Z,14.40
2022-10-17T23:53:40.000Z,14.10
2022-10-17T23:56:09.574Z,13.90
2022-10-17T23:58:39.009Z,12.20
